Aérodrome :
LOGIN :

S'inscrire | Disclaimer

   EN    FR    IT 

 










Légende :    VFR   VFR Marginal   IFR   IFR Intensif   IFR Très Intensif
Visi : 
Plafond : 
>= 8 km
>= 3000ft
5 à 8 km
1000 à 3000 ft
1500m à 5 km
500 à 1000 ft
800 à 1500m
200 à 500 ft
< 800m
< 200 ft
Symboles :   Orages  Brouillard  Fortes neiges  Fortes précipitations  Vent > 20 kt
SIGMETs :   Divers  Orages  Givrage  Turbulence  Onde Orograph.  Cendres Volcan.






- Altitude de l'aérodrome : 240 ft
- Code IATA : VLC


LEVC - Valencia Manises

DERNIER METAR :
  • 120030Z 31016G26KT 9999 FEW050 13/M01 Q1013 NOSIG

METARs EXPIRÉS :
  • 120000Z 35019G34KT 320V020 9999 FEW050 14/M00 Q1013 NOSIG
  • 112330Z 33020KT 9999 FEW050 14/M01 Q1013 NOSIG
  • 112300Z 32011KT 280V360 9999 FEW050 14/M01 Q1013 NOSIG
  • 112230Z 33016KT 300V360 9999 FEW050 14/00 Q1013 NOSIG
  • 112200Z 34018G28KT 9999 FEW050 15/M01 Q1013 NOSIG
  • 112130Z 34022G35KT 310V010 9999 FEW050 15/00 Q1013 NOSIG

TAF AMD TAF LEVC
Valide du 12 à 00h jusqu'au 13 à 00h UTC


112358Z 1200/1224 29008KT 9999 FEW040 TX20/1214Z TN07/1206Z
TEMPO 1200/1204 35020G30KT
TEMPO 1211/1214 35008KT
BECMG 1213/1215 30010G20KT
BECMG 1220/1222 26007KT



MET'MAP, la Météo Aéronautique d'un coup d'oeil ! - Copyright ORBIFLY Décembre 2007 - Disclaimer

ORBIFLY MET'MAP TEAM :

Programmation & Développement : Alexandra Zaïnal
Conception & Développement : Baudouin d'Aumeries
Co-Programmation & Développement : Marc-Olivier Méhu
Soutien technique & logistique : Manuel Goepfert

Contact : metmap@orbifly.com




SOURCES & CREDITS :

   NOAA